Time;durP1;ratioP1;P1;durP2;ratioP2;P2;SDS_P1;SDS_P2;PMS_P1;PMS_P2;Temp;Humidity;BMP_temperature;BMP_pressure;BME280_temperature;BME280_humidity;BME280_pressure;Samples;Min_cycle;Max_cycle;Signal;HPM_P1;HPM_P2
2023/05/20 00:00:56;;;;;;;4.93;2.97;;;13.30;99.90;;;;;;5025694;28;20208;-77
2023/05/20 00:03:21;;;;;;;7.80;2.80;;;13.20;99.90;;;;;;5013749;28;20204;-75
2023/05/20 00:05:47;;;;;;;5.93;3.00;;;13.10;99.90;;;;;;5025546;28;20179;-76
2023/05/20 00:08:14;;;;;;;4.73;3.00;;;13.10;99.90;;;;;;5036196;28;20205;-76
2023/05/20 00:10:40;;;;;;;6.77;3.43;;;13.00;99.90;;;;;;5030893;28;20279;-77
2023/05/20 00:13:06;;;;;;;5.77;3.43;;;13.00;99.90;;;;;;5030682;28;21227;-76
2023/05/20 00:15:32;;;;;;;6.87;3.37;;;12.90;99.90;;;;;;5029593;28;20178;-75
2023/05/20 00:18:00;;;;;;;3.37;2.77;;;13.00;99.90;;;;;;5030828;28;20181;-76
2023/05/20 00:20:26;;;;;;;6.60;3.37;;;12.90;99.90;;;;;;5027382;28;20219;-76
2023/05/20 00:22:51;;;;;;;5.90;3.27;;;12.90;99.90;;;;;;5028160;28;20586;-76
2023/05/20 00:25:17;;;;;;;6.23;3.23;;;12.80;99.90;;;;;;5027173;28;20211;-77
2023/05/20 00:27:43;;;;;;;6.63;3.47;;;12.80;99.90;;;;;;5027107;28;20227;-76
2023/05/20 00:30:09;;;;;;;7.37;3.30;;;12.80;99.90;;;;;;5026913;28;20632;-77
2023/05/20 00:32:35;;;;;;;5.30;3.50;;;12.80;99.90;;;;;;5024150;28;20209;-77
2023/05/20 00:35:02;;;;;;;4.53;3.37;;;12.90;99.90;;;;;;5025861;28;20668;-77
2023/05/20 00:37:27;;;;;;;5.30;3.00;;;12.80;99.90;;;;;;5022802;28;20296;-76
2023/05/20 00:39:53;;;;;;;5.07;3.10;;;12.80;99.90;;;;;;5018690;28;20283;-77
2023/05/20 00:42:26;;;;;;;5.43;3.83;;;12.60;99.90;;;;;;5014461;28;20537;-77
2023/05/20 00:44:53;;;;;;;5.43;3.23;;;12.60;99.90;;;;;;5028855;28;20193;-76
2023/05/20 00:47:22;;;;;;;5.47;3.17;;;12.60;99.90;;;;;;5032121;28;20215;-77
2023/05/20 00:49:50;;;;;;;5.80;3.07;;;12.50;99.90;;;;;;5031337;28;20208;-77
2023/05/20 00:52:17;;;;;;;6.93;3.50;;;12.50;99.90;;;;;;5030734;28;20227;-75
2023/05/20 00:54:43;;;;;;;6.67;3.60;;;12.40;99.90;;;;;;5028532;28;20691;-76
2023/05/20 00:57:10;;;;;;;6.87;3.63;;;12.30;99.90;;;;;;5032495;28;20199;-76
2023/05/20 00:59:36;;;;;;;4.73;3.53;;;12.20;99.90;;;;;;5029415;28;20209;-76
2023/05/20 01:02:05;;;;;;;4.83;3.53;;;12.40;99.90;;;;;;5013709;28;20576;-77
2023/05/20 01:04:32;;;;;;;8.17;3.27;;;12.30;99.90;;;;;;5027160;28;20209;-76
2023/05/20 01:07:01;;;;;;;4.53;3.60;;;12.20;99.90;;;;;;5027147;28;20589;-76
2023/05/20 01:09:27;;;;;;;5.60;3.37;;;12.20;99.90;;;;;;5023875;28;20181;-75
2023/05/20 01:12:03;;;;;;;8.17;3.20;;;12.20;99.90;;;;;;5008922;28;20203;-76
2023/05/20 01:14:34;;;;;;;4.23;3.20;;;12.30;99.90;;;;;;5022808;28;20205;-76
2023/05/20 01:17:08;;;;;;;5.80;3.57;;;12.20;99.90;;;;;;5028116;28;20224;-77
2023/05/20 01:19:33;;;;;;;5.20;3.50;;;12.10;99.90;;;;;;5021656;28;20216;-76
2023/05/20 01:22:02;;;;;;;7.47;3.93;;;12.20;99.90;;;;;;5025140;28;20276;-77
2023/05/20 01:24:28;;;;;;;4.37;3.33;;;12.10;99.90;;;;;;5013470;28;20176;-76
2023/05/20 01:26:56;;;;;;;9.37;4.10;;;12.10;99.90;;;;;;5034783;28;20640;-76
2023/05/20 01:29:23;;;;;;;4.83;3.70;;;12.10;99.90;;;;;;5033550;28;20227;-76
2023/05/20 01:31:50;;;;;;;6.07;3.83;;;12.30;99.90;;;;;;5028096;28;20716;-77
2023/05/20 01:34:16;;;;;;;4.63;3.60;;;12.20;99.90;;;;;;5029570;28;20216;-77
2023/05/20 01:36:45;;;;;;;9.50;3.90;;;12.10;99.90;;;;;;5029141;28;20212;-75
2023/05/20 01:39:12;;;;;;;6.93;4.37;;;12.10;99.90;;;;;;5024032;28;20212;-77
2023/05/20 01:41:39;;;;;;;6.40;3.73;;;12.10;99.90;;;;;;5026949;28;20303;-76
2023/05/20 01:44:05;;;;;;;6.67;4.20;;;12.10;99.90;;;;;;5026510;28;20212;-76
2023/05/20 01:46:34;;;;;;;4.37;3.40;;;12.10;99.90;;;;;;5023587;28;20301;-76
2023/05/20 01:48:59;;;;;;;6.57;3.60;;;12.10;99.90;;;;;;5028368;28;20216;-77
2023/05/20 01:51:25;;;;;;;8.17;4.00;;;12.10;99.90;;;;;;5023758;28;20216;-77
2023/05/20 01:53:51;;;;;;;6.10;3.80;;;12.10;99.90;;;;;;5024761;28;20180;-77
2023/05/20 01:56:16;;;;;;;7.27;4.10;;;12.20;99.90;;;;;;5021980;28;20234;-77
2023/05/20 01:58:42;;;;;;;7.97;3.80;;;12.20;99.90;;;;;;5013480;28;20235;-76
2023/05/20 02:01:08;;;;;;;5.93;4.30;;;12.20;99.90;;;;;;5021667;28;20208;-76
2023/05/20 02:03:33;;;;;;;7.23;4.20;;;12.10;99.90;;;;;;5029589;28;20180;-76
2023/05/20 02:05:59;;;;;;;6.90;4.07;;;12.10;99.90;;;;;;5030833;28;20184;-77
2023/05/20 02:08:24;;;;;;;5.63;3.57;;;12.00;99.90;;;;;;5015661;28;20208;-77
2023/05/20 02:10:50;;;;;;;6.17;3.67;;;11.90;99.90;;;;;;5033938;28;20474;-77
2023/05/20 02:13:16;;;;;;;7.17;3.90;;;11.90;99.90;;;;;;5035939;28;20223;-76
2023/05/20 02:15:41;;;;;;;5.10;3.77;;;11.90;99.90;;;;;;5034695;28;20672;-76
2023/05/20 02:18:07;;;;;;;6.73;4.00;;;11.80;99.90;;;;;;5034441;28;20177;-76
2023/05/20 02:20:36;;;;;;;6.13;4.00;;;11.90;99.90;;;;;;5015604;28;20266;-76
2023/05/20 02:23:04;;;;;;;9.20;4.17;;;11.90;99.90;;;;;;5027229;28;20360;-76
2023/05/20 02:25:30;;;;;;;4.97;3.97;;;11.90;99.90;;;;;;5020884;28;20387;-74
2023/05/20 02:27:56;;;;;;;4.80;3.60;;;12.00;99.90;;;;;;5012610;28;20212;-76
2023/05/20 02:30:22;;;;;;;5.97;4.23;;;11.90;99.90;;;;;;5020483;28;20686;-76
2023/05/20 02:32:47;;;;;;;7.33;4.23;;;11.80;99.90;;;;;;5023600;28;20201;-75
2023/05/20 02:35:13;;;;;;;6.47;4.27;;;11.80;99.90;;;;;;5021561;28;20736;-76
2023/05/20 02:37:39;;;;;;;6.23;3.83;;;11.80;99.90;;;;;;5020086;28;20239;-76
2023/05/20 02:40:06;;;;;;;7.07;3.90;;;11.70;99.90;;;;;;5022284;28;20699;-76
2023/05/20 02:42:33;;;;;;;10.27;4.27;;;11.70;99.90;;;;;;5028096;28;20216;-76
2023/05/20 02:44:59;;;;;;;8.47;4.50;;;11.70;99.90;;;;;;5013907;28;20685;-77
2023/05/20 02:47:24;;;;;;;10.30;4.17;;;11.80;99.90;;;;;;5031843;28;20304;-76
2023/05/20 02:49:50;;;;;;;7.53;4.00;;;11.80;99.90;;;;;;5027931;28;20575;-77
2023/05/20 02:52:16;;;;;;;9.07;4.40;;;11.80;99.90;;;;;;5026581;28;20220;-76
2023/05/20 02:54:42;;;;;;;7.83;4.70;;;11.80;99.90;;;;;;5023098;28;20295;-76
2023/05/20 02:57:07;;;;;;;6.40;4.07;;;11.80;99.90;;;;;;5026574;28;20267;-76
2023/05/20 02:59:33;;;;;;;6.20;4.13;;;11.80;99.90;;;;;;5023497;28;20215;-76
2023/05/20 03:01:58;;;;;;;8.47;3.97;;;11.80;99.90;;;;;;5026353;28;20215;-77
2023/05/20 03:04:25;;;;;;;6.13;4.30;;;11.80;99.90;;;;;;5009754;28;20722;-77
2023/05/20 03:06:50;;;;;;;6.80;4.63;;;11.80;99.90;;;;;;5023797;28;20213;-76
2023/05/20 03:09:18;;;;;;;7.27;4.23;;;11.80;99.90;;;;;;5022579;28;20198;-76
2023/05/20 03:11:45;;;;;;;5.83;3.97;;;11.80;99.90;;;;;;5010328;28;20213;-76
2023/05/20 03:14:10;;;;;;;5.97;4.27;;;11.70;99.90;;;;;;5021448;28;20259;-75
2023/05/20 03:16:36;;;;;;;7.87;4.33;;;11.80;99.90;;;;;;5019082;28;20205;-76
2023/05/20 03:19:02;;;;;;;9.00;4.10;;;11.80;99.90;;;;;;5025752;28;20219;-77
2023/05/20 03:21:28;;;;;;;8.13;4.37;;;11.70;99.90;;;;;;5008445;28;20201;-76
2023/05/20 03:23:53;;;;;;;9.97;4.70;;;11.80;99.90;;;;;;5027888;28;20597;-77
2023/05/20 03:26:20;;;;;;;7.77;4.80;;;11.80;99.90;;;;;;5027667;28;20212;-77
2023/05/20 03:28:46;;;;;;;7.63;4.17;;;11.70;99.90;;;;;;5027939;28;20213;-77
2023/05/20 03:31:12;;;;;;;6.67;3.70;;;11.70;99.90;;;;;;5027458;28;20226;-76
2023/05/20 03:33:37;;;;;;;7.37;4.40;;;11.70;99.90;;;;;;5024131;28;20291;-76
2023/05/20 03:36:04;;;;;;;6.60;4.10;;;11.70;99.90;;;;;;5026552;28;20180;-76
2023/05/20 03:38:29;;;;;;;8.20;4.80;;;11.70;99.90;;;;;;5023868;28;20216;-76
2023/05/20 03:40:55;;;;;;;5.40;4.10;;;11.80;99.90;;;;;;5026124;28;20580;-77
2023/05/20 03:43:21;;;;;;;7.13;4.33;;;11.80;99.90;;;;;;5022480;28;20243;-77
2023/05/20 03:45:46;;;;;;;6.57;4.17;;;11.80;99.90;;;;;;5012555;28;20286;-77
2023/05/20 03:48:12;;;;;;;9.17;4.63;;;11.70;99.90;;;;;;5023499;28;20183;-77
2023/05/20 03:50:38;;;;;;;9.50;4.40;;;11.70;99.90;;;;;;5021564;28;20719;-76
2023/05/20 03:53:03;;;;;;;8.00;4.00;;;11.70;99.90;;;;;;5021858;28;20211;-76
2023/05/20 03:55:29;;;;;;;7.10;3.53;;;11.60;99.90;;;;;;5021407;28;20204;-77
2023/05/20 03:57:54;;;;;;;7.80;4.43;;;11.70;99.90;;;;;;5022462;28;20421;-76
2023/05/20 04:00:20;;;;;;;11.77;4.53;;;11.70;99.90;;;;;;5032449;28;20176;-77
2023/05/20 04:02:46;;;;;;;6.73;4.40;;;11.60;99.90;;;;;;5030829;28;20615;-77
2023/05/20 04:05:12;;;;;;;6.03;4.30;;;11.60;99.90;;;;;;5031183;28;20204;-77
2023/05/20 04:07:38;;;;;;;6.70;4.23;;;11.50;99.90;;;;;;5029068;28;20702;-76
2023/05/20 04:10:05;;;;;;;6.23;4.23;;;11.50;99.90;;;;;;5030022;28;20216;-76
2023/05/20 04:12:31;;;;;;;7.17;5.03;;;11.50;99.90;;;;;;5030395;28;20211;-76
2023/05/20 04:15:01;;;;;;;4.90;3.87;;;11.60;99.90;;;;;;5012899;28;20187;-77
2023/05/20 04:17:30;;;;;;;7.40;4.40;;;11.60;99.90;;;;;;5027631;28;20208;-76
2023/05/20 04:19:58;;;;;;;7.03;4.10;;;11.60;99.90;;;;;;5027012;28;20264;-76
2023/05/20 04:22:24;;;;;;;6.53;3.77;;;11.60;99.90;;;;;;5025590;28;20204;-77
2023/05/20 04:24:50;;;;;;;7.17;4.03;;;11.70;99.90;;;;;;5024542;28;20344;-76
2023/05/20 04:27:15;;;;;;;6.53;4.33;;;11.70;99.90;;;;;;5009199;28;20188;-77
2023/05/20 04:29:44;;;;;;;7.27;3.87;;;11.70;99.90;;;;;;5023260;28;20256;-76
2023/05/20 04:32:13;;;;;;;6.47;4.30;;;11.70;99.90;;;;;;5024491;28;20241;-77
2023/05/20 04:34:39;;;;;;;6.33;4.00;;;11.70;99.90;;;;;;5011350;28;20213;-76
2023/05/20 04:37:06;;;;;;;7.97;4.70;;;11.70;99.90;;;;;;5036042;28;20269;-77
2023/05/20 04:39:32;;;;;;;9.83;4.60;;;11.70;99.90;;;;;;5018227;28;20192;-76
2023/05/20 04:41:58;;;;;;;7.67;4.57;;;11.70;99.90;;;;;;5036595;28;20211;-76
2023/05/20 04:44:25;;;;;;;5.73;3.83;;;11.70;99.90;;;;;;5034383;28;20204;-76
2023/05/20 04:46:51;;;;;;;6.23;4.23;;;11.70;99.90;;;;;;5033202;28;20287;-76
2023/05/20 04:49:17;;;;;;;7.87;4.60;;;11.60;99.90;;;;;;5014705;28;20205;-77
2023/05/20 04:51:43;;;;;;;7.00;4.53;;;11.80;99.90;;;;;;5030825;28;20270;-76
2023/05/20 04:54:09;;;;;;;9.27;4.90;;;11.80;99.90;;;;;;5016139;28;20173;-77
2023/05/20 04:56:35;;;;;;;7.47;4.87;;;11.80;99.90;;;;;;5023701;28;20223;-76
2023/05/20 04:59:00;;;;;;;7.93;4.50;;;11.80;99.90;;;;;;5028648;28;20204;-77
2023/05/20 05:01:26;;;;;;;6.37;4.57;;;11.80;99.90;;;;;;5026690;28;20208;-76
2023/05/20 05:03:52;;;;;;;6.87;4.23;;;11.80;99.90;;;;;;5007781;28;20279;-76
2023/05/20 05:06:17;;;;;;;6.27;4.30;;;11.90;99.90;;;;;;5025024;28;20187;-77
2023/05/20 05:08:43;;;;;;;6.23;4.40;;;11.90;99.90;;;;;;5020539;28;20268;-77
2023/05/20 05:11:09;;;;;;;8.37;4.70;;;12.00;99.90;;;;;;5024505;28;20215;-77
2023/05/20 05:13:34;;;;;;;10.67;4.77;;;11.90;99.90;;;;;;5019759;28;20213;-76
2023/05/20 05:16:01;;;;;;;12.37;4.97;;;11.80;99.90;;;;;;5037547;28;20697;-77
2023/05/20 05:18:26;;;;;;;9.03;4.93;;;11.80;99.90;;;;;;5035309;28;20508;-77
2023/05/20 05:21:02;;;;;;;6.67;4.63;;;11.70;99.90;;;;;;5035024;28;20184;-76
2023/05/20 05:23:28;;;;;;;7.70;4.70;;;11.60;99.90;;;;;;5028951;28;20323;-77
2023/05/20 05:25:54;;;;;;;6.87;4.93;;;11.70;99.90;;;;;;5031818;28;20291;-78
2023/05/20 05:28:19;;;;;;;8.77;4.80;;;11.60;99.90;;;;;;5031262;28;20266;-76
2023/05/20 05:30:45;;;;;;;6.50;4.53;;;11.70;99.90;;;;;;5026550;28;20228;-76
2023/05/20 05:33:11;;;;;;;11.23;5.33;;;11.70;99.90;;;;;;5008652;28;20204;-77
2023/05/20 05:35:36;;;;;;;11.27;5.20;;;11.60;99.90;;;;;;5027220;28;20219;-77
2023/05/20 05:38:02;;;;;;;8.07;5.63;;;11.70;99.90;;;;;;5027209;28;20212;-77
2023/05/20 05:40:28;;;;;;;10.67;4.87;;;11.70;99.90;;;;;;5024963;28;20212;-77
2023/05/20 05:42:53;;;;;;;8.70;5.07;;;11.70;99.90;;;;;;5023412;28;20584;-76
2023/05/20 05:45:19;;;;;;;9.07;5.20;;;11.80;99.90;;;;;;5025099;28;20186;-77
2023/05/20 05:47:44;;;;;;;9.40;5.30;;;11.80;99.90;;;;;;5022026;28;20173;-76
2023/05/20 05:50:10;;;;;;;9.90;5.63;;;11.90;99.90;;;;;;5026870;28;20265;-76
2023/05/20 05:52:36;;;;;;;13.50;5.70;;;11.90;99.90;;;;;;5024546;28;20222;-76
2023/05/20 05:55:02;;;;;;;7.90;4.97;;;12.00;99.90;;;;;;5036733;28;20220;-77
2023/05/20 05:57:27;;;;;;;8.03;5.63;;;12.00;99.90;;;;;;5013986;28;20189;-77
2023/05/20 05:59:53;;;;;;;8.93;5.30;;;12.10;99.90;;;;;;5034074;28;20614;-77
2023/05/20 06:02:19;;;;;;;7.73;5.47;;;12.00;99.90;;;;;;5029781;28;20208;-76
2023/05/20 06:04:44;;;;;;;9.40;5.13;;;12.00;99.90;;;;;;5032054;28;20210;-76
2023/05/20 06:07:10;;;;;;;9.33;5.60;;;12.00;99.90;;;;;;5016080;28;20282;-77
2023/05/20 06:09:36;;;;;;;9.40;5.70;;;12.10;99.90;;;;;;5010875;28;20208;-76
2023/05/20 06:12:02;;;;;;;9.90;5.77;;;12.20;99.90;;;;;;5030154;28;20213;-77
2023/05/20 06:14:28;;;;;;;9.83;6.53;;;12.20;99.90;;;;;;5027461;28;20302;-76
2023/05/20 06:16:53;;;;;;;8.57;5.90;;;12.20;99.90;;;;;;5024618;28;20232;-76
2023/05/20 06:19:19;;;;;;;7.60;5.33;;;12.20;99.90;;;;;;5024705;28;20614;-77
2023/05/20 06:21:44;;;;;;;9.33;5.47;;;12.10;99.90;;;;;;5003999;28;20213;-75
2023/05/20 06:24:10;;;;;;;11.57;6.03;;;12.20;99.90;;;;;;5025276;28;20255;-76
2023/05/20 06:26:36;;;;;;;8.80;5.90;;;12.10;99.90;;;;;;5021232;28;20211;-76
2023/05/20 06:29:02;;;;;;;10.50;6.23;;;12.10;99.90;;;;;;5004016;28;20205;-77
2023/05/20 06:31:28;;;;;;;12.93;5.77;;;12.00;99.90;;;;;;5022217;28;20295;-77
2023/05/20 06:33:54;;;;;;;12.47;6.17;;;12.00;99.90;;;;;;5036236;28;20222;-76
2023/05/20 06:36:20;;;;;;;9.37;6.10;;;12.10;99.90;;;;;;5029701;28;20627;-77
2023/05/20 06:38:46;;;;;;;10.73;6.07;;;12.20;99.90;;;;;;5031904;28;20168;-76
2023/05/20 06:41:12;;;;;;;11.40;5.90;;;12.30;99.90;;;;;;5033781;28;20798;-77
2023/05/20 06:43:39;;;;;;;10.30;5.97;;;12.20;99.90;;;;;;5048311;23;20693;-73
2023/05/20 06:46:05;;;;;;;9.50;5.37;;;12.40;99.90;;;;;;5048859;28;20218;-72
2023/05/20 06:48:30;;;;;;;11.63;6.23;;;12.40;99.90;;;;;;5064689;28;20170;-72
2023/05/20 06:50:56;;;;;;;8.53;5.63;;;12.50;99.90;;;;;;5060039;28;20345;-72
2023/05/20 06:53:22;;;;;;;9.63;5.33;;;12.40;99.90;;;;;;5066541;28;20582;-72
2023/05/20 06:55:47;;;;;;;8.37;5.77;;;12.40;99.90;;;;;;5060512;28;20199;-73
2023/05/20 06:58:13;;;;;;;8.07;5.90;;;12.50;99.90;;;;;;5064212;28;20205;-72
2023/05/20 07:00:39;;;;;;;11.23;5.67;;;12.60;99.90;;;;;;5060381;28;20268;-72
2023/05/20 07:03:04;;;;;;;13.30;9.03;;;12.60;99.90;;;;;;5057034;28;20620;-72
2023/05/20 07:05:30;;;;;;;12.93;7.73;;;12.60;99.90;;;;;;5061570;28;20199;-72
2023/05/20 07:07:56;;;;;;;11.40;7.53;;;12.60;99.90;;;;;;5049330;28;20211;-72
2023/05/20 07:10:22;;;;;;;8.90;6.13;;;12.70;99.90;;;;;;5060233;28;20255;-73
2023/05/20 07:12:47;;;;;;;13.17;7.83;;;12.80;99.90;;;;;;5059852;28;20238;-72
2023/05/20 07:15:13;;;;;;;10.13;6.47;;;12.80;99.90;;;;;;5065231;28;20171;-72
2023/05/20 07:17:39;;;;;;;13.07;8.73;;;12.90;99.90;;;;;;5064177;28;20203;-72
2023/05/20 07:20:05;;;;;;;9.67;7.47;;;13.00;99.90;;;;;;5056509;28;20203;-72
2023/05/20 07:22:31;;;;;;;10.27;6.27;;;13.10;99.90;;;;;;5044842;28;20258;-72
2023/05/20 07:24:56;;;;;;;10.47;6.90;;;13.00;99.90;;;;;;5065586;28;20220;-72
2023/05/20 07:27:22;;;;;;;11.10;8.00;;;13.10;99.90;;;;;;5048034;28;20227;-71
2023/05/20 07:29:48;;;;;;;11.27;6.60;;;13.00;99.90;;;;;;5063496;28;20178;-70
2023/05/20 07:32:13;;;;;;;11.47;7.80;;;13.00;99.90;;;;;;5065545;28;20214;-72
2023/05/20 07:34:39;;;;;;;10.90;6.23;;;13.00;99.90;;;;;;5065061;28;20203;-71
2023/05/20 07:37:05;;;;;;;12.23;6.60;;;13.10;99.90;;;;;;5065138;28;20588;-72
2023/05/20 07:39:30;;;;;;;10.80;6.93;;;13.10;99.90;;;;;;5065427;28;20251;-72
2023/05/20 07:41:56;;;;;;;12.60;7.07;;;13.20;99.90;;;;;;5064155;28;20175;-71
2023/05/20 07:44:22;;;;;;;11.67;6.30;;;13.30;99.90;;;;;;5047778;28;20223;-72
2023/05/20 07:46:48;;;;;;;11.43;6.57;;;13.40;99.90;;;;;;5064895;28;20218;-73
2023/05/20 07:49:14;;;;;;;9.00;6.50;;;13.50;99.90;;;;;;5073238;28;20226;-71
2023/05/20 07:51:40;;;;;;;11.30;6.73;;;13.40;99.90;;;;;;5069954;28;20215;-72
2023/05/20 07:54:05;;;;;;;8.90;5.93;;;13.60;99.90;;;;;;5067676;28;20191;-72
2023/05/20 07:56:32;;;;;;;9.20;5.90;;;13.80;99.90;;;;;;5046339;28;20721;-70
2023/05/20 07:58:58;;;;;;;11.27;6.97;;;13.80;99.90;;;;;;5061164;28;20253;-72
2023/05/20 08:01:25;;;;;;;8.60;5.65;;;13.90;99.90;;;;;;5070214;28;20253;-72
2023/05/20 08:03:51;;;;;;;8.77;5.53;;;14.00;99.90;;;;;;5049802;28;20207;-71
2023/05/20 08:06:19;;;;;;;7.53;5.97;;;13.90;99.90;;;;;;5068068;28;20286;-72
2023/05/20 08:08:45;;;;;;;7.50;5.60;;;14.00;99.90;;;;;;5065291;28;20167;-72
2023/05/20 08:11:11;;;;;;;7.13;5.70;;;14.20;99.90;;;;;;5067401;28;20569;-72
2023/05/20 08:13:37;;;;;;;7.43;5.63;;;14.30;99.90;;;;;;5065897;28;20720;-72
2023/05/20 08:16:04;;;;;;;9.35;6.05;;;14.40;99.90;;;;;;5065186;28;20215;-72
2023/05/20 08:18:31;;;;;;;7.97;5.25;;;14.40;99.90;;;;;;5064895;28;20297;-72
2023/05/20 08:20:57;;;;;;;10.57;5.80;;;14.40;99.90;;;;;;5051757;28;20183;-72
2023/05/20 08:23:23;;;;;;;9.88;5.90;;;14.30;99.90;;;;;;5043215;28;20302;-73
2023/05/20 08:25:49;;;;;;;8.32;5.75;;;14.40;99.90;;;;;;5054945;28;20207;-72
2023/05/20 08:28:15;;;;;;;6.93;5.20;;;14.50;99.90;;;;;;5050594;28;20525;-72
2023/05/20 08:30:40;;;;;;;7.65;5.75;;;14.70;99.90;;;;;;5068092;28;20248;-72
2023/05/20 08:33:06;;;;;;;9.05;5.90;;;14.70;99.90;;;;;;5070002;28;20199;-72
2023/05/20 08:35:32;;;;;;;8.90;5.95;;;14.90;99.90;;;;;;5070601;28;20210;-73
2023/05/20 08:37:57;;;;;;;9.25;5.53;;;14.90;99.90;;;;;;5064673;28;20227;-72
2023/05/20 08:40:23;;;;;;;9.15;5.65;;;15.20;99.90;;;;;;5065368;28;20195;-72
2023/05/20 08:42:53;;;;;;;7.82;5.32;;;15.10;99.90;;;;;;5062690;28;20205;-72
2023/05/20 08:45:22;;;;;;;7.45;5.90;;;15.00;99.90;;;;;;5050591;28;20244;-71
2023/05/20 08:47:48;;;;;;;7.70;5.32;;;15.00;99.90;;;;;;5064747;28;20249;-72
2023/05/20 08:50:15;;;;;;;13.65;5.50;;;15.00;99.90;;;;;;5065210;28;20203;-72
2023/05/20 08:52:46;;;;;;;7.63;5.70;;;15.10;99.90;;;;;;5067613;28;20213;-72
2023/05/20 08:55:22;;;;;;;5.70;5.03;;;15.10;99.90;;;;;;5059783;28;20236;-72
2023/05/20 08:57:50;;;;;;;8.05;5.63;;;15.20;99.90;;;;;;5062097;28;20706;-71
2023/05/20 09:00:17;;;;;;;7.63;5.88;;;15.20;99.90;;;;;;5064115;28;20571;-72
2023/05/20 09:02:45;;;;;;;7.20;5.35;;;15.20;99.90;;;;;;5046094;28;20172;-72
2023/05/20 09:05:11;;;;;;;5.05;4.35;;;15.30;99.90;;;;;;5052522;28;20273;-72
2023/05/20 09:07:36;;;;;;;8.02;5.20;;;15.30;99.90;;;;;;5061595;28;20583;-72
2023/05/20 09:10:03;;;;;;;9.57;5.93;;;15.20;99.90;;;;;;5064912;28;20211;-72
2023/05/20 09:12:29;;;;;;;8.15;5.55;;;15.20;99.90;;;;;;5048472;28;20643;-73
2023/05/20 09:14:54;;;;;;;8.13;6.15;;;15.00;99.90;;;;;;5064618;28;20199;-72
2023/05/20 09:17:23;;;;;;;7.03;5.53;;;15.00;99.90;;;;;;5065243;28;20199;-72
2023/05/20 09:19:50;;;;;;;9.43;6.32;;;14.90;99.90;;;;;;5047244;28;20203;-73
2023/05/20 09:22:21;;;;;;;8.90;5.60;;;14.90;99.90;;;;;;5050049;28;20203;-72
2023/05/20 09:24:47;;;;;;;8.88;5.80;;;14.80;99.90;;;;;;5056764;28;20211;-72
2023/05/20 09:27:13;;;;;;;8.00;6.13;;;14.80;99.90;;;;;;5060643;28;20183;-71
2023/05/20 09:29:38;;;;;;;5.80;4.80;;;14.80;99.90;;;;;;5064370;28;20202;-71
2023/05/20 09:32:04;;;;;;;8.43;5.15;;;14.80;99.90;;;;;;5056335;28;20577;-72
2023/05/20 09:34:30;;;;;;;11.73;5.53;;;15.00;99.90;;;;;;5068131;28;20203;-72
2023/05/20 09:36:59;;;;;;;6.28;5.53;;;15.00;99.90;;;;;;5059250;28;20216;-72
2023/05/20 09:39:29;;;;;;;7.65;5.40;;;15.10;99.90;;;;;;5045803;28;20176;-72
2023/05/20 09:42:01;;;;;;;8.48;6.28;;;15.20;99.90;;;;;;5055649;28;20243;-69
2023/05/20 09:44:28;;;;;;;8.20;5.97;;;15.20;99.90;;;;;;5066913;28;20215;-71
2023/05/20 09:46:55;;;;;;;9.27;6.47;;;15.20;99.90;;;;;;5070360;28;20210;-72
2023/05/20 09:49:22;;;;;;;9.73;5.65;;;15.10;99.90;;;;;;5066412;28;20218;-72
2023/05/20 09:51:49;;;;;;;9.50;6.30;;;15.10;99.90;;;;;;5068572;28;20223;-72
2023/05/20 09:54:18;;;;;;;9.65;6.38;;;15.20;99.90;;;;;;5046819;28;20257;-72
2023/05/20 09:56:45;;;;;;;10.52;6.95;;;15.20;99.90;;;;;;5067505;28;20175;-72
2023/05/20 09:59:14;;;;;;;8.70;6.22;;;15.30;99.90;;;;;;5066460;28;20222;-72
2023/05/20 10:01:40;;;;;;;8.27;6.03;;;15.40;99.90;;;;;;5065107;28;20199;-72
2023/05/20 10:04:07;;;;;;;11.90;7.22;;;15.40;99.90;;;;;;5063542;28;20694;-72
2023/05/20 10:07:11;;;;;;;9.95;7.53;;;15.50;99.90;;;;;;5068267;28;20198;-72
2023/05/20 10:09:49;;;;;;;9.07;6.20;;;15.50;99.90;;;;;;5064519;28;20202;-73
2023/05/20 10:12:24;;;;;;;13.32;8.50;;;15.60;99.90;;;;;;5051242;28;20214;-72
2023/05/20 10:15:09;;;;;;;11.95;8.32;;;15.50;99.90;;;;;;5062013;28;20190;-73
2023/05/20 10:17:40;;;;;;;12.15;7.60;;;15.50;99.90;;;;;;5048606;28;20209;-71
2023/05/20 10:20:13;;;;;;;12.15;7.85;;;15.40;99.90;;;;;;5050473;28;20282;-71
2023/05/20 10:22:44;;;;;;;12.90;7.50;;;15.30;99.90;;;;;;5053889;28;20204;-72
2023/05/20 10:25:22;;;;;;;11.70;7.43;;;15.40;99.90;;;;;;5069292;28;20215;-71
2023/05/20 10:27:47;;;;;;;11.18;8.30;;;15.40;99.90;;;;;;5069349;28;20582;-71
2023/05/20 10:30:21;;;;;;;14.30;8.73;;;15.40;99.90;;;;;;5052023;28;20182;-71
2023/05/20 10:32:53;;;;;;;11.23;8.15;;;15.50;99.90;;;;;;5048695;28;20218;-72
2023/05/20 10:35:25;;;;;;;8.50;6.97;;;15.70;99.90;;;;;;5051282;28;20213;-72
2023/05/20 10:37:52;;;;;;;9.68;7.53;;;15.80;99.90;;;;;;5063699;28;20207;-72
2023/05/20 10:40:20;;;;;;;12.75;7.80;;;15.70;99.90;;;;;;5065766;28;20214;-71
2023/05/20 10:42:46;;;;;;;11.73;7.82;;;15.70;99.90;;;;;;5044708;28;20738;-71
2023/05/20 10:45:25;;;;;;;10.00;7.30;;;15.90;99.90;;;;;;5065420;28;20180;-71
2023/05/20 10:47:57;;;;;;;14.07;7.20;;;16.00;99.90;;;;;;5063740;28;20203;-71
2023/05/20 10:50:28;;;;;;;9.07;6.85;;;16.00;99.90;;;;;;5059083;28;20222;-72
2023/05/20 10:52:55;;;;;;;9.15;7.05;;;16.20;99.90;;;;;;5043125;28;20231;-75
2023/05/20 10:55:21;;;;;;;13.02;7.72;;;16.40;99.90;;;;;;5062384;28;20211;-71
2023/05/20 10:57:47;;;;;;;10.18;8.02;;;16.40;99.90;;;;;;5060026;28;20210;-72
2023/05/20 11:00:15;;;;;;;11.70;8.50;;;16.50;99.90;;;;;;5060873;28;20180;-72
2023/05/20 11:02:41;;;;;;;9.13;6.95;;;16.40;99.90;;;;;;5065103;28;20677;-72
2023/05/20 11:05:11;;;;;;;14.50;7.95;;;16.60;99.90;;;;;;5063857;28;20602;-72
2023/05/20 11:07:37;;;;;;;11.20;7.55;;;16.80;99.90;;;;;;5064620;28;20203;-72
2023/05/20 11:10:08;;;;;;;9.73;7.40;;;16.70;99.90;;;;;;5066556;28;20294;-71
2023/05/20 11:12:33;;;;;;;10.32;7.65;;;16.70;99.90;;;;;;5065385;28;20352;-71
2023/05/20 11:15:00;;;;;;;11.98;7.63;;;16.80;99.90;;;;;;5065921;28;20226;-71
2023/05/20 11:17:25;;;;;;;9.90;7.78;;;16.60;99.90;;;;;;5066361;28;20195;-72
2023/05/20 11:19:51;;;;;;;10.52;7.28;;;16.60;99.90;;;;;;5062744;28;20214;-72
2023/05/20 11:22:17;;;;;;;11.50;8.57;;;16.70;99.90;;;;;;5059546;28;20632;-71
2023/05/20 11:24:42;;;;;;;11.20;7.90;;;16.80;99.90;;;;;;5064471;28;20614;-72
2023/05/20 11:27:08;;;;;;;9.95;7.28;;;17.00;99.90;;;;;;5058024;28;20184;-72
2023/05/20 11:29:34;;;;;;;12.57;7.60;;;17.00;99.90;;;;;;5044842;28;20206;-72
2023/05/20 11:32:00;;;;;;;11.00;7.95;;;17.10;99.90;;;;;;5057568;28;20285;-71
2023/05/20 11:34:31;;;;;;;9.25;7.55;;;17.20;99.90;;;;;;5064944;28;20203;-72
2023/05/20 11:36:58;;;;;;;12.52;8.02;;;17.20;99.90;;;;;;5061908;28;20238;-71
2023/05/20 11:39:26;;;;;;;10.10;6.93;;;17.20;99.90;;;;;;5060916;28;20171;-72
2023/05/20 11:41:52;;;;;;;12.52;8.02;;;17.30;99.90;;;;;;5065470;28;20252;-72
2023/05/20 11:44:19;;;;;;;11.32;7.90;;;17.40;99.90;;;;;;5063619;28;20227;-71
2023/05/20 11:46:48;;;;;;;14.10;8.80;;;17.50;99.90;;;;;;5064041;28;20202;-71
2023/05/20 11:49:14;;;;;;;9.15;6.70;;;17.30;99.90;;;;;;5050711;28;20804;-72
2023/05/20 11:51:42;;;;;;;10.73;8.07;;;17.00;99.90;;;;;;5051229;28;20249;-71
2023/05/20 11:54:08;;;;;;;10.38;7.60;;;17.10;99.90;;;;;;5064858;28;20704;-71
2023/05/20 11:56:37;;;;;;;10.40;7.20;;;17.20;99.90;;;;;;5047954;28;20211;-71
2023/05/20 11:59:04;;;;;;;15.10;8.43;;;17.50;99.90;;;;;;5063092;28;20261;-71
2023/05/20 12:01:42;;;;;;;26.20;20.60;;;17.60;99.90;;;;;;5064755;28;20248;-72
2023/05/20 12:04:08;;;;;;;11.70;8.13;;;17.50;99.90;;;;;;5061214;28;20297;-71
2023/05/20 12:06:38;;;;;;;10.55;8.10;;;17.50;99.90;;;;;;5047331;28;20229;-71
2023/05/20 12:09:06;;;;;;;8.95;7.40;;;17.50;99.90;;;;;;5051651;28;20175;-71
2023/05/20 12:11:36;;;;;;;8.38;7.25;;;17.60;99.90;;;;;;5051525;28;20764;-70
2023/05/20 12:14:05;;;;;;;10.07;7.28;;;17.60;99.90;;;;;;5046735;28;20210;-72
2023/05/20 12:16:32;;;;;;;11.95;9.00;;;17.70;99.90;;;;;;5061175;28;20211;-71
2023/05/20 12:18:58;;;;;;;12.00;8.52;;;17.50;99.90;;;;;;5064936;28;20214;-72
2023/05/20 12:21:24;;;;;;;9.98;8.55;;;17.40;99.90;;;;;;5067755;28;20183;-71
2023/05/20 12:23:49;;;;;;;9.88;7.85;;;17.50;99.90;;;;;;5067316;28;20194;-72
2023/05/20 12:26:15;;;;;;;10.52;8.07;;;17.50;99.90;;;;;;5070327;28;20211;-71
2023/05/20 12:28:41;;;;;;;12.50;8.75;;;17.60;99.90;;;;;;5067748;28;20260;-70
2023/05/20 12:31:06;;;;;;;9.57;7.95;;;17.40;99.90;;;;;;5065700;28;20592;-73
2023/05/20 12:33:32;;;;;;;13.07;9.05;;;17.30;99.90;;;;;;5068654;28;20199;-67
2023/05/20 12:35:58;;;;;;;12.88;8.40;;;17.30;99.90;;;;;;5044687;28;20168;-71
2023/05/20 12:38:23;;;;;;;9.45;7.85;;;17.30;99.90;;;;;;5062670;28;20680;-71
2023/05/20 12:40:49;;;;;;;12.70;8.63;;;17.20;99.90;;;;;;5067236;28;20767;-73